sensor_id;sensor_type;location;lat;lon;timestamp;P1;durP1;ratioP1;P2;durP2;ratioP2
36283;SDS011;56085;48.910;9.478;2024-03-23T00:55:36;10.70;;;7.70;;
36283;SDS011;56085;48.910;9.478;2024-03-23T00:58:01;12.48;;;7.65;;
36283;SDS011;56085;48.910;9.478;2024-03-23T01:00:27;12.05;;;8.10;;
36283;SDS011;56085;48.910;9.478;2024-03-23T01:02:52;13.10;;;8.25;;
36283;SDS011;56085;48.910;9.478;2024-03-23T01:05:17;9.70;;;7.95;;
36283;SDS011;56085;48.910;9.478;2024-03-23T01:07:42;11.52;;;8.02;;
36283;SDS011;56085;48.910;9.478;2024-03-23T01:10:08;16.48;;;8.88;;
36283;SDS011;56085;48.910;9.478;2024-03-23T01:12:34;11.73;;;8.95;;
36283;SDS011;56085;48.910;9.478;2024-03-23T01:14:59;15.18;;;8.82;;
36283;SDS011;56085;48.910;9.478;2024-03-23T01:17:24;11.68;;;8.25;;
36283;SDS011;56085;48.910;9.478;2024-03-23T01:19:49;11.48;;;8.82;;
36283;SDS011;56085;48.910;9.478;2024-03-23T01:22:15;11.13;;;7.75;;
36283;SDS011;56085;48.910;9.478;2024-03-23T01:24:40;14.05;;;8.00;;
36283;SDS011;56085;48.910;9.478;2024-03-23T01:27:05;11.85;;;8.27;;
36283;SDS011;56085;48.910;9.478;2024-03-23T01:29:31;9.60;;;7.78;;
36283;SDS011;56085;48.910;9.478;2024-03-23T01:31:56;12.07;;;7.75;;
36283;SDS011;56085;48.910;9.478;2024-03-23T01:34:21;13.00;;;7.07;;
36283;SDS011;56085;48.910;9.478;2024-03-23T01:36:46;11.48;;;7.90;;
36283;SDS011;56085;48.910;9.478;2024-03-23T01:39:12;8.93;;;7.28;;
36283;SDS011;56085;48.910;9.478;2024-03-23T01:41:39;11.20;;;8.77;;
36283;SDS011;56085;48.910;9.478;2024-03-23T01:44:07;14.07;;;7.80;;
36283;SDS011;56085;48.910;9.478;2024-03-23T01:46:33;11.57;;;7.97;;
36283;SDS011;56085;48.910;9.478;2024-03-23T01:48:58;11.73;;;7.50;;
36283;SDS011;56085;48.910;9.478;2024-03-23T01:51:24;13.13;;;7.85;;
36283;SDS011;56085;48.910;9.478;2024-03-23T01:53:51;9.65;;;4.95;;
36283;SDS011;56085;48.910;9.478;2024-03-23T01:56:18;11.88;;;3.90;;
36283;SDS011;56085;48.910;9.478;2024-03-23T01:58:44;10.48;;;2.90;;
36283;SDS011;56085;48.910;9.478;2024-03-23T02:01:10;4.68;;;3.03;;
36283;SDS011;56085;48.910;9.478;2024-03-23T02:03:35;6.13;;;3.63;;
36283;SDS011;56085;48.910;9.478;2024-03-23T02:06:00;6.55;;;4.13;;
36283;SDS011;56085;48.910;9.478;2024-03-23T02:08:26;9.18;;;6.80;;
36283;SDS011;56085;48.910;9.478;2024-03-23T02:10:51;8.02;;;3.00;;
36283;SDS011;56085;48.910;9.478;2024-03-23T02:13:17;4.63;;;2.35;;
36283;SDS011;56085;48.910;9.478;2024-03-23T02:15:44;3.40;;;1.80;;
36283;SDS011;56085;48.910;9.478;2024-03-23T02:18:09;3.88;;;2.25;;
36283;SDS011;56085;48.910;9.478;2024-03-23T02:20:35;3.15;;;1.80;;
36283;SDS011;56085;48.910;9.478;2024-03-23T02:23:01;5.97;;;2.08;;
36283;SDS011;56085;48.910;9.478;2024-03-23T02:25:27;5.80;;;2.10;;
36283;SDS011;56085;48.910;9.478;2024-03-23T02:27:52;7.05;;;2.45;;
36283;SDS011;56085;48.910;9.478;2024-03-23T02:30:19;2.22;;;1.50;;
36283;SDS011;56085;48.910;9.478;2024-03-23T02:32:44;3.05;;;1.70;;
36283;SDS011;56085;48.910;9.478;2024-03-23T02:35:09;2.53;;;1.55;;
36283;SDS011;56085;48.910;9.478;2024-03-23T02:37:35;6.93;;;2.30;;
36283;SDS011;56085;48.910;9.478;2024-03-23T02:40:00;2.85;;;1.85;;
36283;SDS011;56085;48.910;9.478;2024-03-23T02:42:25;3.65;;;1.80;;
36283;SDS011;56085;48.910;9.478;2024-03-23T02:44:51;2.75;;;1.52;;
36283;SDS011;56085;48.910;9.478;2024-03-23T02:47:16;4.82;;;1.83;;
36283;SDS011;56085;48.910;9.478;2024-03-23T02:49:41;2.95;;;1.98;;
36283;SDS011;56085;48.910;9.478;2024-03-23T02:52:06;2.92;;;1.60;;
36283;SDS011;56085;48.910;9.478;2024-03-23T02:54:32;5.22;;;1.63;;
36283;SDS011;56085;48.910;9.478;2024-03-23T02:56:57;4.28;;;1.75;;
36283;SDS011;56085;48.910;9.478;2024-03-23T02:59:22;4.18;;;1.90;;
36283;SDS011;56085;48.910;9.478;2024-03-23T03:01:47;5.22;;;1.83;;
36283;SDS011;56085;48.910;9.478;2024-03-23T03:04:13;2.83;;;1.70;;
36283;SDS011;56085;48.910;9.478;2024-03-23T03:06:38;8.65;;;1.88;;
36283;SDS011;56085;48.910;9.478;2024-03-23T03:09:03;6.05;;;1.83;;
36283;SDS011;56085;48.910;9.478;2024-03-23T03:11:29;5.60;;;1.80;;
36283;SDS011;56085;48.910;9.478;2024-03-23T03:13:54;3.03;;;1.75;;
36283;SDS011;56085;48.910;9.478;2024-03-23T03:16:20;4.07;;;1.77;;
36283;SDS011;56085;48.910;9.478;2024-03-23T03:18:45;2.55;;;1.55;;
36283;SDS011;56085;48.910;9.478;2024-03-23T03:21:11;1.70;;;1.30;;
36283;SDS011;56085;48.910;9.478;2024-03-23T03:23:37;7.35;;;2.00;;
36283;SDS011;56085;48.910;9.478;2024-03-23T03:26:03;3.45;;;1.73;;
36283;SDS011;56085;48.910;9.478;2024-03-23T03:28:32;3.67;;;1.58;;
36283;SDS011;56085;48.910;9.478;2024-03-23T03:30:58;2.92;;;1.80;;
36283;SDS011;56085;48.910;9.478;2024-03-23T03:33:26;3.83;;;1.88;;
36283;SDS011;56085;48.910;9.478;2024-03-23T03:35:52;5.82;;;2.25;;
36283;SDS011;56085;48.910;9.478;2024-03-23T03:38:18;3.00;;;1.38;;
36283;SDS011;56085;48.910;9.478;2024-03-23T03:40:43;3.90;;;2.15;;
36283;SDS011;56085;48.910;9.478;2024-03-23T03:43:08;3.03;;;2.22;;
36283;SDS011;56085;48.910;9.478;2024-03-23T03:45:34;4.50;;;2.60;;
36283;SDS011;56085;48.910;9.478;2024-03-23T03:47:59;4.60;;;2.10;;
36283;SDS011;56085;48.910;9.478;2024-03-23T03:50:24;5.82;;;2.85;;
36283;SDS011;56085;48.910;9.478;2024-03-23T03:52:50;5.85;;;2.42;;
36283;SDS011;56085;48.910;9.478;2024-03-23T03:55:15;3.22;;;2.35;;
36283;SDS011;56085;48.910;9.478;2024-03-23T03:57:41;6.45;;;2.67;;
36283;SDS011;56085;48.910;9.478;2024-03-23T04:00:07;4.32;;;2.58;;
36283;SDS011;56085;48.910;9.478;2024-03-23T04:02:36;4.25;;;2.53;;
36283;SDS011;56085;48.910;9.478;2024-03-23T04:05:01;3.42;;;2.22;;
36283;SDS011;56085;48.910;9.478;2024-03-23T04:07:28;3.55;;;1.98;;
36283;SDS011;56085;48.910;9.478;2024-03-23T04:09:53;4.40;;;2.40;;
36283;SDS011;56085;48.910;9.478;2024-03-23T04:12:19;3.83;;;2.85;;
36283;SDS011;56085;48.910;9.478;2024-03-23T04:14:45;3.15;;;2.45;;
36283;SDS011;56085;48.910;9.478;2024-03-23T04:17:10;3.55;;;2.53;;
36283;SDS011;56085;48.910;9.478;2024-03-23T04:19:35;4.75;;;3.03;;
36283;SDS011;56085;48.910;9.478;2024-03-23T04:22:00;4.32;;;2.75;;
36283;SDS011;56085;48.910;9.478;2024-03-23T04:24:26;5.13;;;3.15;;
36283;SDS011;56085;48.910;9.478;2024-03-23T04:26:51;4.55;;;2.92;;
36283;SDS011;56085;48.910;9.478;2024-03-23T04:29:17;5.78;;;3.17;;
36283;SDS011;56085;48.910;9.478;2024-03-23T04:31:42;6.03;;;3.75;;
36283;SDS011;56085;48.910;9.478;2024-03-23T04:34:07;5.03;;;3.63;;
36283;SDS011;56085;48.910;9.478;2024-03-23T04:36:33;4.93;;;3.40;;
36283;SDS011;56085;48.910;9.478;2024-03-23T04:38:59;4.43;;;3.00;;
36283;SDS011;56085;48.910;9.478;2024-03-23T04:41:25;5.88;;;3.53;;
36283;SDS011;56085;48.910;9.478;2024-03-23T04:43:50;5.30;;;3.63;;
36283;SDS011;56085;48.910;9.478;2024-03-23T04:46:16;5.50;;;3.03;;
36283;SDS011;56085;48.910;9.478;2024-03-23T04:48:41;4.80;;;3.20;;
36283;SDS011;56085;48.910;9.478;2024-03-23T04:51:09;5.57;;;3.45;;
36283;SDS011;56085;48.910;9.478;2024-03-23T04:53:35;5.80;;;3.72;;
36283;SDS011;56085;48.910;9.478;2024-03-23T04:56:00;7.13;;;4.47;;
36283;SDS011;56085;48.910;9.478;2024-03-23T04:58:26;8.90;;;5.38;;
36283;SDS011;56085;48.910;9.478;2024-03-23T05:00:54;8.98;;;6.13;;
36283;SDS011;56085;48.910;9.478;2024-03-23T05:03:20;10.27;;;6.65;;
36283;SDS011;56085;48.910;9.478;2024-03-23T05:05:46;12.07;;;7.68;;
36283;SDS011;56085;48.910;9.478;2024-03-23T05:08:11;14.80;;;9.10;;
36283;SDS011;56085;48.910;9.478;2024-03-23T05:10:37;13.02;;;8.57;;
36283;SDS011;56085;48.910;9.478;2024-03-23T05:13:03;13.23;;;8.70;;
36283;SDS011;56085;48.910;9.478;2024-03-23T05:15:28;13.93;;;9.70;;
36283;SDS011;56085;48.910;9.478;2024-03-23T05:17:54;14.07;;;10.32;;
36283;SDS011;56085;48.910;9.478;2024-03-23T05:20:20;15.40;;;9.40;;
36283;SDS011;56085;48.910;9.478;2024-03-23T05:22:45;16.17;;;10.48;;
36283;SDS011;56085;48.910;9.478;2024-03-23T05:25:11;15.43;;;10.45;;
36283;SDS011;56085;48.910;9.478;2024-03-23T05:27:37;14.75;;;10.68;;
36283;SDS011;56085;48.910;9.478;2024-03-23T05:30:02;12.93;;;9.80;;
36283;SDS011;56085;48.910;9.478;2024-03-23T05:32:28;13.55;;;9.85;;
36283;SDS011;56085;48.910;9.478;2024-03-23T05:34:54;15.85;;;10.20;;
36283;SDS011;56085;48.910;9.478;2024-03-23T05:37:22;13.38;;;9.52;;
36283;SDS011;56085;48.910;9.478;2024-03-23T05:39:47;17.15;;;10.57;;
36283;SDS011;56085;48.910;9.478;2024-03-23T05:42:14;16.17;;;10.13;;
36283;SDS011;56085;48.910;9.478;2024-03-23T05:44:46;20.00;;;10.25;;
36283;SDS011;56085;48.910;9.478;2024-03-23T05:47:12;13.40;;;10.45;;
36283;SDS011;56085;48.910;9.478;2024-03-23T05:49:41;16.58;;;10.57;;
36283;SDS011;56085;48.910;9.478;2024-03-23T05:52:07;14.13;;;10.35;;
36283;SDS011;56085;48.910;9.478;2024-03-23T05:54:33;15.75;;;9.85;;
36283;SDS011;56085;48.910;9.478;2024-03-23T05:56:58;14.48;;;8.60;;
36283;SDS011;56085;48.910;9.478;2024-03-23T05:59:24;13.23;;;9.05;;
36283;SDS011;56085;48.910;9.478;2024-03-23T06:01:49;13.65;;;9.52;;
36283;SDS011;56085;48.910;9.478;2024-03-23T06:04:15;9.95;;;6.55;;
36283;SDS011;56085;48.910;9.478;2024-03-23T06:06:40;10.20;;;6.28;;
36283;SDS011;56085;48.910;9.478;2024-03-23T06:09:05;11.48;;;6.97;;
36283;SDS011;56085;48.910;9.478;2024-03-23T06:11:31;11.52;;;7.35;;
36283;SDS011;56085;48.910;9.478;2024-03-23T06:13:56;10.13;;;6.07;;
36283;SDS011;56085;48.910;9.478;2024-03-23T06:16:21;8.10;;;5.35;;
36283;SDS011;56085;48.910;9.478;2024-03-23T06:18:52;6.90;;;4.30;;
36283;SDS011;56085;48.910;9.478;2024-03-23T06:21:18;7.13;;;4.60;;
36283;SDS011;56085;48.910;9.478;2024-03-23T06:23:44;7.03;;;4.55;;
36283;SDS011;56085;48.910;9.478;2024-03-23T06:26:16;7.55;;;4.00;;
36283;SDS011;56085;48.910;9.478;2024-03-23T06:28:42;7.53;;;4.82;;
36283;SDS011;56085;48.910;9.478;2024-03-23T06:31:10;6.30;;;3.97;;
36283;SDS011;56085;48.910;9.478;2024-03-23T06:33:36;5.47;;;3.90;;
36283;SDS011;56085;48.910;9.478;2024-03-23T06:36:01;7.60;;;4.63;;
36283;SDS011;56085;48.910;9.478;2024-03-23T06:38:28;8.02;;;3.88;;
36283;SDS011;56085;48.910;9.478;2024-03-23T06:40:53;5.82;;;3.60;;
36283;SDS011;56085;48.910;9.478;2024-03-23T06:43:18;5.07;;;3.40;;
36283;SDS011;56085;48.910;9.478;2024-03-23T06:45:44;7.53;;;4.13;;
36283;SDS011;56085;48.910;9.478;2024-03-23T06:48:09;7.82;;;4.43;;
36283;SDS011;56085;48.910;9.478;2024-03-23T06:50:34;7.15;;;4.07;;
36283;SDS011;56085;48.910;9.478;2024-03-23T06:53:00;4.78;;;3.05;;
36283;SDS011;56085;48.910;9.478;2024-03-23T06:55:27;4.47;;;3.05;;
36283;SDS011;56085;48.910;9.478;2024-03-23T06:57:52;4.70;;;2.33;;
36283;SDS011;56085;48.910;9.478;2024-03-23T07:00:18;4.40;;;2.25;;
36283;SDS011;56085;48.910;9.478;2024-03-23T07:02:43;4.28;;;2.22;;
36283;SDS011;56085;48.910;9.478;2024-03-23T07:05:11;3.67;;;1.95;;
36283;SDS011;56085;48.910;9.478;2024-03-23T07:07:37;4.72;;;2.10;;
36283;SDS011;56085;48.910;9.478;2024-03-23T07:10:04;3.00;;;1.73;;
36283;SDS011;56085;48.910;9.478;2024-03-23T07:12:30;3.78;;;1.77;;
36283;SDS011;56085;48.910;9.478;2024-03-23T07:14:55;3.10;;;1.60;;
36283;SDS011;56085;48.910;9.478;2024-03-23T07:17:20;5.70;;;1.63;;
36283;SDS011;56085;48.910;9.478;2024-03-23T07:19:46;3.63;;;1.73;;
36283;SDS011;56085;48.910;9.478;2024-03-23T07:22:11;2.33;;;1.40;;
36283;SDS011;56085;48.910;9.478;2024-03-23T07:24:36;2.03;;;1.08;;
36283;SDS011;56085;48.910;9.478;2024-03-23T07:27:04;1.85;;;1.10;;
36283;SDS011;56085;48.910;9.478;2024-03-23T07:29:29;2.00;;;1.00;;
36283;SDS011;56085;48.910;9.478;2024-03-23T07:31:54;1.73;;;0.93;;
36283;SDS011;56085;48.910;9.478;2024-03-23T07:34:20;2.75;;;0.80;;
36283;SDS011;56085;48.910;9.478;2024-03-23T07:36:45;0.90;;;0.80;;
36283;SDS011;56085;48.910;9.478;2024-03-23T07:39:10;2.33;;;0.90;;
36283;SDS011;56085;48.910;9.478;2024-03-23T07:41:36;1.05;;;0.60;;
36283;SDS011;56085;48.910;9.478;2024-03-23T07:44:01;0.90;;;0.70;;
36283;SDS011;56085;48.910;9.478;2024-03-23T07:46:27;0.98;;;0.65;;
36283;SDS011;56085;48.910;9.478;2024-03-23T07:48:52;2.42;;;1.13;;
36283;SDS011;56085;48.910;9.478;2024-03-23T07:51:20;1.83;;;0.90;;
36283;SDS011;56085;48.910;9.478;2024-03-23T07:53:46;2.42;;;1.00;;
36283;SDS011;56085;48.910;9.478;2024-03-23T07:56:13;1.70;;;0.93;;
36283;SDS011;56085;48.910;9.478;2024-03-23T07:58:43;1.35;;;0.80;;
36283;SDS011;56085;48.910;9.478;2024-03-23T08:01:10;1.67;;;0.93;;
36283;SDS011;56085;48.910;9.478;2024-03-23T08:03:38;0.95;;;0.75;;
36283;SDS011;56085;48.910;9.478;2024-03-23T08:06:10;1.63;;;0.93;;
36283;SDS011;56085;48.910;9.478;2024-03-23T08:08:36;0.88;;;0.68;;
36283;SDS011;56085;48.910;9.478;2024-03-23T08:11:01;1.70;;;0.73;;
36283;SDS011;56085;48.910;9.478;2024-03-23T08:13:28;1.45;;;0.90;;
36283;SDS011;56085;48.910;9.478;2024-03-23T08:16:00;1.25;;;0.80;;
36283;SDS011;56085;48.910;9.478;2024-03-23T08:18:26;1.02;;;0.75;;
36283;SDS011;56085;48.910;9.478;2024-03-23T08:20:58;2.53;;;0.80;;
36283;SDS011;56085;48.910;9.478;2024-03-23T08:23:25;1.35;;;0.75;;
36283;SDS011;56085;48.910;9.478;2024-03-23T08:25:51;2.33;;;0.70;;
36283;SDS011;56085;48.910;9.478;2024-03-23T08:28:17;0.93;;;0.55;;
36283;SDS011;56085;48.910;9.478;2024-03-23T08:30:44;0.68;;;0.52;;
36283;SDS011;56085;48.910;9.478;2024-03-23T08:33:09;0.40;;;0.35;;
36283;SDS011;56085;48.910;9.478;2024-03-23T08:35:34;0.95;;;0.50;;
36283;SDS011;56085;48.910;9.478;2024-03-23T08:38:00;1.02;;;0.50;;
36283;SDS011;56085;48.910;9.478;2024-03-23T08:40:25;0.50;;;0.30;;
36283;SDS011;56085;48.910;9.478;2024-03-23T08:42:50;0.75;;;0.50;;
36283;SDS011;56085;48.910;9.478;2024-03-23T08:47:41;1.70;;;0.40;;
36283;SDS011;56085;48.910;9.478;2024-03-23T08:50:06;0.57;;;0.30;;
36283;SDS011;56085;48.910;9.478;2024-03-23T08:52:31;0.75;;;0.40;;
36283;SDS011;56085;48.910;9.478;2024-03-23T08:54:56;0.20;;;0.10;;
36283;SDS011;56085;48.910;9.478;2024-03-23T08:57:23;0.98;;;0.30;;
36283;SDS011;56085;48.910;9.478;2024-03-23T08:59:48;1.23;;;0.45;;
36283;SDS011;56085;48.910;9.478;2024-03-23T09:02:13;1.20;;;0.50;;
36283;SDS011;56085;48.910;9.478;2024-03-23T09:04:39;1.00;;;0.60;;
36283;SDS011;56085;48.910;9.478;2024-03-23T09:07:04;1.15;;;0.65;;
36283;SDS011;56085;48.910;9.478;2024-03-23T09:09:29;1.27;;;0.75;;
36283;SDS011;56085;48.910;9.478;2024-03-23T09:11:55;1.55;;;0.60;;
36283;SDS011;56085;48.910;9.478;2024-03-23T09:14:21;1.55;;;0.75;;
36283;SDS011;56085;48.910;9.478;2024-03-23T09:16:49;2.22;;;1.20;;
36283;SDS011;56085;48.910;9.478;2024-03-23T09:19:15;2.40;;;0.80;;
36283;SDS011;56085;48.910;9.478;2024-03-23T09:21:41;1.10;;;0.70;;
36283;SDS011;56085;48.910;9.478;2024-03-23T09:24:07;4.68;;;2.85;;
36283;SDS011;56085;48.910;9.478;2024-03-23T09:26:33;17.48;;;8.23;;
36283;SDS011;56085;48.910;9.478;2024-03-23T09:28:58;12.93;;;5.07;;
36283;SDS011;56085;48.910;9.478;2024-03-23T09:31:24;9.60;;;5.15;;
36283;SDS011;56085;48.910;9.478;2024-03-23T09:33:49;8.57;;;4.63;;
36283;SDS011;56085;48.910;9.478;2024-03-23T09:36:15;10.52;;;6.55;;
36283;SDS011;56085;48.910;9.478;2024-03-23T09:38:40;17.00;;;8.85;;
36283;SDS011;56085;48.910;9.478;2024-03-23T09:41:06;16.63;;;8.88;;
36283;SDS011;56085;48.910;9.478;2024-03-23T09:43:33;13.63;;;5.25;;
36283;SDS011;56085;48.910;9.478;2024-03-23T09:45:58;5.65;;;2.17;;
36283;SDS011;56085;48.910;9.478;2024-03-23T09:48:24;6.68;;;3.47;;
36283;SDS011;56085;48.910;9.478;2024-03-23T09:50:49;9.05;;;4.43;;
36283;SDS011;56085;48.910;9.478;2024-03-23T09:53:14;10.85;;;5.00;;
36283;SDS011;56085;48.910;9.478;2024-03-23T09:58:06;12.80;;;4.53;;
36283;SDS011;56085;48.910;9.478;2024-03-23T10:00:32;14.73;;;6.45;;
36283;SDS011;56085;48.910;9.478;2024-03-23T10:02:58;12.75;;;6.88;;
36283;SDS011;56085;48.910;9.478;2024-03-23T10:05:26;13.57;;;6.43;;
36283;SDS011;56085;48.910;9.478;2024-03-23T10:07:52;9.23;;;5.53;;
36283;SDS011;56085;48.910;9.478;2024-03-23T10:10:18;5.80;;;2.97;;
36283;SDS011;56085;48.910;9.478;2024-03-23T10:12:44;8.05;;;3.38;;
36283;SDS011;56085;48.910;9.478;2024-03-23T10:15:15;6.13;;;2.42;;
36283;SDS011;56085;48.910;9.478;2024-03-23T10:17:43;5.95;;;2.50;;
36283;SDS011;56085;48.910;9.478;2024-03-23T10:20:09;3.35;;;2.25;;
36283;SDS011;56085;48.910;9.478;2024-03-23T10:22:36;7.78;;;3.17;;
36283;SDS011;56085;48.910;9.478;2024-03-23T10:25:10;6.30;;;2.72;;
36283;SDS011;56085;48.910;9.478;2024-03-23T10:27:36;8.18;;;4.22;;
36283;SDS011;56085;48.910;9.478;2024-03-23T10:30:08;9.05;;;2.78;;
36283;SDS011;56085;48.910;9.478;2024-03-23T10:32:38;10.55;;;4.30;;
36283;SDS011;56085;48.910;9.478;2024-03-23T10:37:43;10.38;;;4.47;;
36283;SDS011;56085;48.910;9.478;2024-03-23T10:40:09;8.10;;;4.15;;
36283;SDS011;56085;48.910;9.478;2024-03-23T10:42:36;10.45;;;5.25;;
36283;SDS011;56085;48.910;9.478;2024-03-23T10:45:03;9.05;;;6.85;;
36283;SDS011;56085;48.910;9.478;2024-03-23T10:47:29;6.95;;;3.67;;
36283;SDS011;56085;48.910;9.478;2024-03-23T10:49:56;8.63;;;2.90;;
36283;SDS011;56085;48.910;9.478;2024-03-23T10:52:21;7.78;;;2.72;;
36283;SDS011;56085;48.910;9.478;2024-03-23T10:54:46;7.38;;;2.40;;
36283;SDS011;56085;48.910;9.478;2024-03-23T10:57:16;5.95;;;2.85;;
36283;SDS011;56085;48.910;9.478;2024-03-23T10:59:45;3.22;;;2.00;;
36283;SDS011;56085;48.910;9.478;2024-03-23T11:02:20;6.75;;;2.22;;
36283;SDS011;56085;48.910;9.478;2024-03-23T11:04:46;8.43;;;2.35;;
36283;SDS011;56085;48.910;9.478;2024-03-23T11:09:49;7.22;;;2.30;;
36283;SDS011;56085;48.910;9.478;2024-03-23T11:19:55;5.70;;;2.33;;
36283;SDS011;56085;48.910;9.478;2024-03-23T11:25:02;5.68;;;2.50;;
36283;SDS011;56085;48.910;9.478;2024-03-23T11:27:28;6.45;;;2.65;;
36283;SDS011;56085;48.910;9.478;2024-03-23T11:29:53;5.57;;;2.67;;
36283;SDS011;56085;48.910;9.478;2024-03-23T11:32:18;6.40;;;2.30;;
36283;SDS011;56085;48.910;9.478;2024-03-23T11:34:43;4.80;;;2.33;;
36283;SDS011;56085;48.910;9.478;2024-03-23T11:37:09;6.35;;;2.83;;
36283;SDS011;56085;48.910;9.478;2024-03-23T11:39:34;6.28;;;2.95;;
36283;SDS011;56085;48.910;9.478;2024-03-23T11:41:59;8.05;;;2.95;;
36283;SDS011;56085;48.910;9.478;2024-03-23T11:44:25;10.00;;;3.20;;
36283;SDS011;56085;48.910;9.478;2024-03-23T11:46:51;8.48;;;3.08;;
36283;SDS011;56085;48.910;9.478;2024-03-23T11:51:49;8.45;;;3.13;;
36283;SDS011;56085;48.910;9.478;2024-03-23T11:54:15;5.95;;;2.25;;
36283;SDS011;56085;48.910;9.478;2024-03-23T11:56:53;7.72;;;3.15;;
36283;SDS011;56085;48.910;9.478;2024-03-23T11:59:38;6.82;;;2.45;;
36283;SDS011;56085;48.910;9.478;2024-03-23T12:02:09;10.13;;;2.83;;
36283;SDS011;56085;48.910;9.478;2024-03-23T12:04:39;6.28;;;2.55;;
36283;SDS011;56085;48.910;9.478;2024-03-23T12:07:09;12.45;;;3.05;;
36283;SDS011;56085;48.910;9.478;2024-03-23T12:09:37;5.45;;;2.33;;
36283;SDS011;56085;48.910;9.478;2024-03-23T12:12:09;6.38;;;2.33;;
36283;SDS011;56085;48.910;9.478;2024-03-23T12:15:02;6.47;;;2.40;;
36283;SDS011;56085;48.910;9.478;2024-03-23T12:17:30;7.70;;;2.20;;
36283;SDS011;56085;48.910;9.478;2024-03-23T12:19:55;4.90;;;2.60;;
36283;SDS011;56085;48.910;9.478;2024-03-23T12:22:20;4.22;;;2.22;;
36283;SDS011;56085;48.910;9.478;2024-03-23T12:24:46;5.95;;;2.05;;
36283;SDS011;56085;48.910;9.478;2024-03-23T12:27:11;4.30;;;2.03;;
36283;SDS011;56085;48.910;9.478;2024-03-23T12:29:37;6.75;;;2.63;;
36283;SDS011;56085;48.910;9.478;2024-03-23T12:32:04;5.32;;;2.53;;
36283;SDS011;56085;48.910;9.478;2024-03-23T12:34:29;4.70;;;2.75;;
36283;SDS011;56085;48.910;9.478;2024-03-23T12:36:57;7.78;;;2.53;;
36283;SDS011;56085;48.910;9.478;2024-03-23T12:39:23;8.23;;;2.40;;
36283;SDS011;56085;48.910;9.478;2024-03-23T12:41:48;6.90;;;2.83;;
36283;SDS011;56085;48.910;9.478;2024-03-23T12:44:14;4.18;;;2.08;;
36283;SDS011;56085;48.910;9.478;2024-03-23T12:46:40;6.88;;;2.10;;
36283;SDS011;56085;48.910;9.478;2024-03-23T12:49:06;5.95;;;2.42;;
36283;SDS011;56085;48.910;9.478;2024-03-23T12:51:32;11.57;;;7.65;;
36283;SDS011;56085;48.910;9.478;2024-03-23T12:53:57;5.43;;;2.78;;
36283;SDS011;56085;48.910;9.478;2024-03-23T12:56:23;3.38;;;1.85;;
36283;SDS011;56085;48.910;9.478;2024-03-23T12:58:48;6.30;;;1.67;;
36283;SDS011;56085;48.910;9.478;2024-03-23T13:01:16;2.75;;;1.30;;
36283;SDS011;56085;48.910;9.478;2024-03-23T13:03:46;2.20;;;1.25;;
36283;SDS011;56085;48.910;9.478;2024-03-23T13:06:11;4.60;;;1.63;;
36283;SDS011;56085;48.910;9.478;2024-03-23T13:08:37;5.20;;;2.00;;
36283;SDS011;56085;48.910;9.478;2024-03-23T13:11:02;5.93;;;1.75;;
36283;SDS011;56085;48.910;9.478;2024-03-23T13:13:28;5.43;;;1.75;;
36283;SDS011;56085;48.910;9.478;2024-03-23T13:15:53;4.38;;;1.50;;
36283;SDS011;56085;48.910;9.478;2024-03-23T13:18:18;4.78;;;1.63;;
36283;SDS011;56085;48.910;9.478;2024-03-23T13:20:43;5.13;;;1.98;;
36283;SDS011;56085;48.910;9.478;2024-03-23T13:23:09;8.32;;;1.92;;
36283;SDS011;56085;48.910;9.478;2024-03-23T13:25:34;4.38;;;1.50;;
36283;SDS011;56085;48.910;9.478;2024-03-23T13:28:00;5.40;;;1.88;;
36283;SDS011;56085;48.910;9.478;2024-03-23T13:30:26;3.90;;;1.45;;
36283;SDS011;56085;48.910;9.478;2024-03-23T13:32:51;4.22;;;1.85;;
36283;SDS011;56085;48.910;9.478;2024-03-23T13:35:16;6.90;;;1.88;;
36283;SDS011;56085;48.910;9.478;2024-03-23T13:37:41;4.32;;;1.85;;
36283;SDS011;56085;48.910;9.478;2024-03-23T13:40:07;4.38;;;1.42;;
36283;SDS011;56085;48.910;9.478;2024-03-23T13:42:33;4.53;;;1.83;;
36283;SDS011;56085;48.910;9.478;2024-03-23T13:44:58;3.63;;;1.75;;
36283;SDS011;56085;48.910;9.478;2024-03-23T13:47:23;4.15;;;1.60;;
36283;SDS011;56085;48.910;9.478;2024-03-23T13:49:49;3.67;;;1.63;;
36283;SDS011;56085;48.910;9.478;2024-03-23T13:52:14;6.78;;;1.92;;
36283;SDS011;56085;48.910;9.478;2024-03-23T13:54:39;5.35;;;1.75;;
36283;SDS011;56085;48.910;9.478;2024-03-23T13:57:10;3.65;;;1.42;;
36283;SDS011;56085;48.910;9.478;2024-03-23T13:59:35;3.60;;;1.35;;
36283;SDS011;56085;48.910;9.478;2024-03-23T14:02:01;4.68;;;1.50;;
36283;SDS011;56085;48.910;9.478;2024-03-23T14:04:26;8.35;;;1.65;;
36283;SDS011;56085;48.910;9.478;2024-03-23T14:06:51;5.00;;;1.38;;
36283;SDS011;56085;48.910;9.478;2024-03-23T14:09:17;4.45;;;1.55;;
36283;SDS011;56085;48.910;9.478;2024-03-23T14:11:46;5.15;;;1.52;;
36283;SDS011;56085;48.910;9.478;2024-03-23T14:14:11;4.28;;;1.13;;
36283;SDS011;56085;48.910;9.478;2024-03-23T14:16:37;5.18;;;1.27;;
36283;SDS011;56085;48.910;9.478;2024-03-23T14:19:03;4.97;;;1.70;;
36283;SDS011;56085;48.910;9.478;2024-03-23T14:21:30;5.40;;;1.88;;
36283;SDS011;56085;48.910;9.478;2024-03-23T14:23:56;4.63;;;1.30;;
36283;SDS011;56085;48.910;9.478;2024-03-23T14:26:21;3.10;;;0.88;;
36283;SDS011;56085;48.910;9.478;2024-03-23T14:28:46;5.30;;;1.45;;
36283;SDS011;56085;48.910;9.478;2024-03-23T14:31:12;4.38;;;1.13;;
36283;SDS011;56085;48.910;9.478;2024-03-23T14:33:37;5.22;;;1.23;;
36283;SDS011;56085;48.910;9.478;2024-03-23T14:36:06;3.55;;;1.00;;
36283;SDS011;56085;48.910;9.478;2024-03-23T14:38:31;3.20;;;1.38;;
36283;SDS011;56085;48.910;9.478;2024-03-23T14:41:00;8.93;;;1.45;;
36283;SDS011;56085;48.910;9.478;2024-03-23T14:43:26;3.20;;;1.15;;
36283;SDS011;56085;48.910;9.478;2024-03-23T14:46:07;2.58;;;0.98;;
36283;SDS011;56085;48.910;9.478;2024-03-23T14:48:36;3.00;;;1.08;;
36283;SDS011;56085;48.910;9.478;2024-03-23T14:51:02;1.40;;;0.85;;
36283;SDS011;56085;48.910;9.478;2024-03-23T14:53:31;1.58;;;0.93;;
36283;SDS011;56085;48.910;9.478;2024-03-23T14:55:57;2.85;;;1.27;;
36283;SDS011;56085;48.910;9.478;2024-03-23T14:58:23;4.78;;;2.67;;
36283;SDS011;56085;48.910;9.478;2024-03-23T15:00:49;3.53;;;1.10;;
36283;SDS011;56085;48.910;9.478;2024-03-23T15:03:15;2.50;;;0.70;;
36283;SDS011;56085;48.910;9.478;2024-03-23T15:05:40;6.57;;;1.40;;
36283;SDS011;56085;48.910;9.478;2024-03-23T15:08:06;2.25;;;0.82;;
36283;SDS011;56085;48.910;9.478;2024-03-23T15:10:34;3.88;;;1.50;;
36283;SDS011;56085;48.910;9.478;2024-03-23T15:12:59;2.65;;;1.38;;
36283;SDS011;56085;48.910;9.478;2024-03-23T15:15:24;4.15;;;1.63;;
36283;SDS011;56085;48.910;9.478;2024-03-23T15:17:50;2.15;;;0.93;;
36283;SDS011;56085;48.910;9.478;2024-03-23T15:20:15;2.35;;;1.05;;
36283;SDS011;56085;48.910;9.478;2024-03-23T15:22:40;2.63;;;1.02;;
36283;SDS011;56085;48.910;9.478;2024-03-23T15:25:06;2.50;;;0.80;;
36283;SDS011;56085;48.910;9.478;2024-03-23T15:27:33;3.10;;;1.00;;
36283;SDS011;56085;48.910;9.478;2024-03-23T15:29:58;5.05;;;0.90;;
36283;SDS011;56085;48.910;9.478;2024-03-23T15:32:23;4.15;;;1.60;;
36283;SDS011;56085;48.910;9.478;2024-03-23T15:34:49;2.53;;;1.10;;
36283;SDS011;56085;48.910;9.478;2024-03-23T15:37:14;2.15;;;0.73;;
36283;SDS011;56085;48.910;9.478;2024-03-23T15:39:39;2.63;;;1.42;;
36283;SDS011;56085;48.910;9.478;2024-03-23T15:42:06;3.08;;;0.95;;
36283;SDS011;56085;48.910;9.478;2024-03-23T15:44:32;3.92;;;0.90;;
36283;SDS011;56085;48.910;9.478;2024-03-23T15:46:58;1.95;;;0.55;;
36283;SDS011;56085;48.910;9.478;2024-03-23T15:49:24;0.75;;;0.50;;
36283;SDS011;56085;48.910;9.478;2024-03-23T15:51:49;0.60;;;0.32;;
36283;SDS011;56085;48.910;9.478;2024-03-23T15:54:14;0.95;;;0.50;;
36283;SDS011;56085;48.910;9.478;2024-03-23T15:56:39;2.25;;;0.70;;